createdAt,value
2023-03-29T00:01:36.649Z,101027.50
2023-03-29T00:04:06.442Z,101011.00
2023-03-29T00:06:33.917Z,101032.63
2023-03-29T00:09:01.780Z,101015.25
2023-03-29T00:11:28.355Z,101017.06
2023-03-29T00:13:54.897Z,101031.75
2023-03-29T00:16:21.666Z,100988.47
2023-03-29T00:18:48.132Z,101008.41
2023-03-29T00:21:14.517Z,101005.94
2023-03-29T00:23:41.012Z,101031.78
2023-03-29T00:26:08.456Z,100932.19
2023-03-29T00:28:35.418Z,101007.72
2023-03-29T00:31:10.629Z,101007.44
2023-03-29T00:33:37.390Z,101012.59
2023-03-29T00:36:05.031Z,101010.94
2023-03-29T00:38:32.024Z,101025.84
2023-03-29T00:40:59.312Z,101011.00
2023-03-29T00:43:25.926Z,100989.34
2023-03-29T00:45:52.595Z,101005.75
2023-03-29T00:48:28.072Z,100954.88
2023-03-29T00:51:00.172Z,100995.63
2023-03-29T00:53:35.723Z,100995.47
2023-03-29T00:56:10.004Z,100990.25
2023-03-29T00:58:44.008Z,100991.97
2023-03-29T01:01:19.352Z,100954.75
2023-03-29T01:03:50.423Z,100972.84
2023-03-29T01:06:18.939Z,100972.88
2023-03-29T01:08:54.195Z,100961.56
2023-03-29T01:11:28.905Z,100946.00
2023-03-29T01:13:59.770Z,100943.34
2023-03-29T01:16:29.001Z,100926.09
2023-03-29T01:18:58.170Z,100961.31
2023-03-29T01:21:44.551Z,100968.25
2023-03-29T01:24:24.719Z,100957.06
2023-03-29T01:27:13.711Z,100953.53
2023-03-29T01:29:47.916Z,100964.91
2023-03-29T01:32:19.892Z,100958.78
2023-03-29T01:34:53.172Z,100950.28
2023-03-29T01:37:27.729Z,100961.47
2023-03-29T01:39:54.331Z,100951.97
2023-03-29T01:42:49.198Z,100925.91
2023-03-29T01:45:27.658Z,100950.94
2023-03-29T01:48:17.264Z,100925.91
2023-03-29T01:50:51.829Z,100950.06
2023-03-29T01:53:27.094Z,100949.19
2023-03-29T01:55:57.100Z,100938.09
2023-03-29T01:58:33.589Z,100918.03
2023-03-29T02:01:05.634Z,100911.09
2023-03-29T02:03:34.302Z,100920.69
2023-03-29T02:06:03.028Z,100906.06
2023-03-29T02:08:30.305Z,100908.56
2023-03-29T02:10:56.713Z,100912.00
2023-03-29T02:13:23.278Z,100908.47
2023-03-29T02:15:49.749Z,100887.72
2023-03-29T02:18:18.484Z,100901.53
2023-03-29T02:20:48.381Z,100869.53
2023-03-29T02:23:34.152Z,100897.97
2023-03-29T02:26:01.814Z,100879.81
2023-03-29T02:28:29.685Z,100904.94
2023-03-29T02:31:05.588Z,100905.47
2023-03-29T02:33:42.693Z,100883.84
2023-03-29T02:36:17.557Z,100887.41
2023-03-29T02:38:44.910Z,100882.31
2023-03-29T02:41:12.047Z,100907.31
2023-03-29T02:43:39.698Z,100896.03
2023-03-29T02:46:07.686Z,100873.72
2023-03-29T02:48:37.401Z,100909.03
2023-03-29T02:51:16.882Z,100872.84
2023-03-29T02:53:51.934Z,100886.69
2023-03-29T02:56:20.102Z,100873.75
2023-03-29T02:58:46.831Z,100867.66
2023-03-29T03:01:14.682Z,100894.41
2023-03-29T03:03:41.284Z,100901.41
2023-03-29T03:06:07.866Z,100889.09
2023-03-29T03:08:34.295Z,100859.75
2023-03-29T03:11:01.120Z,100858.06
2023-03-29T03:13:27.659Z,100854.53
2023-03-29T03:15:54.124Z,100867.44
2023-03-29T03:18:20.768Z,100849.09
2023-03-29T03:21:01.924Z,100851.66
2023-03-29T03:23:28.840Z,100847.31
2023-03-29T03:25:55.290Z,100826.59
2023-03-29T03:28:24.106Z,100820.38
2023-03-29T03:30:50.675Z,100835.00
2023-03-29T03:33:18.070Z,100745.22
2023-03-29T03:35:46.259Z,100846.31
2023-03-29T03:38:12.872Z,100860.09
2023-03-29T03:40:39.241Z,100833.31
2023-03-29T03:43:05.692Z,100802.16
2023-03-29T03:45:32.243Z,100824.56
2023-03-29T03:47:58.619Z,100771.06
2023-03-29T03:50:25.060Z,100854.03
2023-03-29T03:52:51.898Z,100759.00
2023-03-29T03:55:18.297Z,100851.41
2023-03-29T03:57:44.730Z,100765.94
2023-03-29T04:00:19.459Z,100849.66
2023-03-29T04:02:50.783Z,100852.22
2023-03-29T04:05:17.349Z,100771.13
2023-03-29T04:07:43.790Z,100851.28
2023-03-29T04:10:11.300Z,100856.50
2023-03-29T04:12:38.545Z,100797.72
2023-03-29T04:15:06.015Z,100851.16
2023-03-29T04:17:32.469Z,100857.19
2023-03-29T04:19:58.871Z,100848.56
2023-03-29T04:22:25.711Z,100830.44
2023-03-29T04:24:52.389Z,100730.22
2023-03-29T04:27:18.918Z,100854.50
2023-03-29T04:29:45.357Z,100794.88
2023-03-29T04:32:11.788Z,100724.97
2023-03-29T04:34:38.289Z,100736.13
2023-03-29T04:37:10.422Z,100828.53
2023-03-29T04:39:37.481Z,100811.31
2023-03-29T04:42:05.043Z,100753.50
2023-03-29T04:44:34.890Z,100838.06
2023-03-29T04:47:01.392Z,100788.81
2023-03-29T04:49:27.815Z,100801.91
2023-03-29T04:51:54.735Z,100840.63
2023-03-29T04:54:21.461Z,100820.78
2023-03-29T04:56:47.923Z,100799.97
2023-03-29T04:59:14.341Z,100784.59
2023-03-29T05:01:42.038Z,100828.63
2023-03-29T05:04:09.269Z,100813.81
2023-03-29T05:06:37.238Z,100828.59
2023-03-29T05:09:04.806Z,100801.75
2023-03-29T05:11:31.585Z,100706.94
2023-03-29T05:14:02.306Z,100822.63
2023-03-29T05:16:30.314Z,100818.19
2023-03-29T05:18:57.390Z,100718.19
2023-03-29T05:21:26.040Z,100756.88
2023-03-29T05:23:53.204Z,100704.22
2023-03-29T05:26:20.597Z,100828.41
2023-03-29T05:28:47.526Z,100830.13
2023-03-29T05:31:16.806Z,100744.63
2023-03-29T05:33:43.941Z,100721.41
2023-03-29T05:36:33.149Z,100801.53
2023-03-29T05:38:59.788Z,100686.03
2023-03-29T05:41:26.234Z,100801.69
2023-03-29T05:43:52.582Z,100719.75
2023-03-29T05:46:20.314Z,100782.53
2023-03-29T05:48:52.095Z,100804.94
2023-03-29T05:51:18.978Z,100736.84
2023-03-29T05:53:45.418Z,100806.66
2023-03-29T05:56:15.836Z,100700.56
2023-03-29T05:58:43.029Z,100795.41
2023-03-29T06:01:17.897Z,100709.91
2023-03-29T06:06:26.691Z,100743.63
2023-03-29T06:08:53.137Z,100791.03
2023-03-29T06:11:19.658Z,100803.03
2023-03-29T06:13:46.097Z,100795.25
2023-03-29T06:16:13.331Z,100809.75
2023-03-29T06:18:40.969Z,100798.56
2023-03-29T06:21:09.088Z,100629.47
2023-03-29T06:23:47.606Z,100729.44
2023-03-29T06:26:14.253Z,100807.94
2023-03-29T06:28:40.600Z,100782.91
2023-03-29T06:31:07.228Z,100626.72
2023-03-29T06:33:34.213Z,100821.53
2023-03-29T06:36:00.705Z,100780.09
2023-03-29T06:38:28.344Z,100819.91
2023-03-29T06:41:06.735Z,100810.91
2023-03-29T06:43:34.664Z,100763.50
2023-03-29T06:46:01.868Z,100665.44
2023-03-29T06:48:29.282Z,100723.97
2023-03-29T06:50:56.356Z,100810.25
2023-03-29T06:53:22.989Z,100819.59
2023-03-29T06:55:50.855Z,100793.78
2023-03-29T06:58:17.269Z,100816.13
2023-03-29T07:00:43.660Z,100776.66
2023-03-29T07:03:13.359Z,100837.19
2023-03-29T07:05:41.935Z,100812.03
2023-03-29T07:08:08.592Z,100813.59
2023-03-29T07:10:41.069Z,100833.38
2023-03-29T07:13:09.236Z,100837.56
2023-03-29T07:15:35.919Z,100831.19
2023-03-29T07:18:04.603Z,100816.28
2023-03-29T07:20:33.753Z,100776.34
2023-03-29T07:23:00.709Z,100785.88
2023-03-29T07:25:27.639Z,100813.38
2023-03-29T07:27:54.025Z,100800.22
2023-03-29T07:30:30.233Z,100818.25
2023-03-29T07:32:58.607Z,100824.25
2023-03-29T07:35:26.684Z,100831.84
2023-03-29T07:37:54.825Z,100820.78
2023-03-29T07:40:23.523Z,100834.56
2023-03-29T07:42:55.167Z,100821.78
2023-03-29T07:45:26.542Z,100843.28
2023-03-29T07:47:57.023Z,100790.50
2023-03-29T07:50:24.060Z,100840.50
2023-03-29T07:52:50.960Z,100833.53
2023-03-29T07:55:17.431Z,100801.09
2023-03-29T07:57:44.522Z,100814.97
2023-03-29T08:00:16.511Z,100846.88
2023-03-29T08:02:44.878Z,100741.69
2023-03-29T08:05:13.632Z,100852.88
2023-03-29T08:07:42.419Z,100838.25
2023-03-29T08:10:11.678Z,100847.06
2023-03-29T08:12:38.409Z,100838.47
2023-03-29T08:15:05.520Z,100757.22
2023-03-29T08:17:32.954Z,100860.50
2023-03-29T08:19:59.532Z,100776.78
2023-03-29T08:22:26.036Z,100764.81
2023-03-29T08:24:52.892Z,100828.50
2023-03-29T08:27:19.514Z,100784.34
2023-03-29T08:29:46.231Z,100839.19
2023-03-29T08:32:14.115Z,100774.59
2023-03-29T08:34:40.711Z,100828.66
2023-03-29T08:37:08.465Z,100837.19
2023-03-29T08:39:35.050Z,100836.41
2023-03-29T08:42:26.500Z,100844.44
2023-03-29T08:45:18.649Z,100837.88
2023-03-29T08:47:58.566Z,100834.16
2023-03-29T08:50:33.594Z,100834.97
2023-03-29T08:53:06.322Z,100839.19
2023-03-29T08:55:39.949Z,100825.28
2023-03-29T08:58:11.962Z,100809.97
2023-03-29T09:00:46.867Z,100843.56
2023-03-29T09:03:22.974Z,100845.72
2023-03-29T09:06:04.871Z,100828.41
2023-03-29T09:08:31.652Z,100814.38
2023-03-29T09:11:20.532Z,100848.91
2023-03-29T09:14:17.386Z,100846.72
2023-03-29T09:16:56.140Z,100816.94
2023-03-29T09:19:37.213Z,100825.81
2023-03-29T09:22:18.948Z,100801.66
2023-03-29T09:25:12.252Z,100837.31
2023-03-29T09:27:47.509Z,100825.28
2023-03-29T09:30:26.094Z,100735.84
2023-03-29T09:32:57.345Z,100830.31
2023-03-29T09:35:36.321Z,100832.88
2023-03-29T09:38:05.693Z,100804.13
2023-03-29T09:40:39.827Z,100765.13
2023-03-29T09:43:12.407Z,100799.31
2023-03-29T09:45:40.796Z,100686.91
2023-03-29T09:48:13.671Z,100693.41
2023-03-29T09:50:48.554Z,100813.00
2023-03-29T09:53:15.830Z,100811.19
2023-03-29T09:55:44.720Z,100785.44
2023-03-29T09:58:15.225Z,100696.63
2023-03-29T10:00:42.540Z,100792.47
2023-03-29T10:03:10.689Z,100831.03
2023-03-29T10:05:37.934Z,100810.78
2023-03-29T10:08:19.618Z,100790.22
2023-03-29T10:10:46.966Z,100722.25
2023-03-29T10:13:23.664Z,100792.06
2023-03-29T10:16:00.178Z,100820.66
2023-03-29T10:18:31.552Z,100629.81
2023-03-29T10:21:04.142Z,100632.66
2023-03-29T10:23:36.873Z,100805.63
2023-03-29T10:26:07.735Z,100803.22
2023-03-29T10:28:36.633Z,100784.78
2023-03-29T10:31:05.944Z,100698.25
2023-03-29T10:33:35.155Z,100797.75
2023-03-29T10:36:07.067Z,100785.88
2023-03-29T10:38:36.303Z,100799.56
2023-03-29T10:41:06.770Z,100701.59
2023-03-29T10:43:39.163Z,100791.06
2023-03-29T10:46:17.875Z,100784.44
2023-03-29T10:48:55.725Z,100788.16
2023-03-29T10:51:24.140Z,100697.84
2023-03-29T10:53:50.764Z,100693.78
2023-03-29T10:56:41.178Z,100764.28
2023-03-29T10:59:21.508Z,100782.81
2023-03-29T11:02:09.663Z,100781.41
2023-03-29T11:05:10.463Z,100785.38
2023-03-29T11:08:07.985Z,100787.03
2023-03-29T11:10:40.833Z,100777.72
2023-03-29T11:13:46.907Z,100643.78
2023-03-29T11:16:39.271Z,100780.63
2023-03-29T11:19:32.267Z,100768.63
2023-03-29T11:22:27.900Z,100727.97
2023-03-29T11:25:20.058Z,100676.97
2023-03-29T11:28:06.609Z,100759.38
2023-03-29T11:30:57.949Z,100640.13
2023-03-29T11:33:38.696Z,100753.56
2023-03-29T11:36:17.619Z,100736.50
2023-03-29T11:39:19.409Z,100750.63
2023-03-29T11:41:52.467Z,100708.03
2023-03-29T11:44:33.397Z,100724.88
2023-03-29T11:47:09.751Z,100733.84
2023-03-29T11:49:42.277Z,100729.00
2023-03-29T11:52:15.878Z,100720.44
2023-03-29T11:55:02.636Z,100756.56
2023-03-29T11:57:38.428Z,100670.75
2023-03-29T12:00:20.445Z,100641.56
2023-03-29T12:03:06.654Z,100729.25
2023-03-29T12:05:44.060Z,100732.69
2023-03-29T12:08:15.208Z,100711.50
2023-03-29T12:11:03.792Z,100704.19
2023-03-29T12:13:33.478Z,100691.06
2023-03-29T12:16:08.763Z,100730.47
2023-03-29T12:18:45.746Z,100717.81
2023-03-29T12:21:16.059Z,100719.28
2023-03-29T12:23:43.825Z,100706.00
2023-03-29T12:26:41.926Z,100721.16
2023-03-29T12:29:26.876Z,100708.44
2023-03-29T12:31:53.262Z,100705.72
2023-03-29T12:34:38.463Z,100718.72
2023-03-29T12:37:31.905Z,100716.88
2023-03-29T12:40:16.562Z,100681.13
2023-03-29T12:42:44.723Z,100693.81
2023-03-29T12:45:19.251Z,100695.47
2023-03-29T12:47:47.441Z,100623.50
2023-03-29T12:50:46.203Z,100704.19
2023-03-29T12:53:23.936Z,100711.69
2023-03-29T12:56:17.880Z,100720.34
2023-03-29T12:59:07.517Z,100684.84
2023-03-29T13:01:36.907Z,100707.56
2023-03-29T13:04:13.596Z,100699.84
2023-03-29T13:06:50.526Z,100692.38
2023-03-29T13:09:29.810Z,100687.66
2023-03-29T13:12:21.231Z,100667.16
2023-03-29T13:14:57.837Z,100683.44
2023-03-29T13:17:39.700Z,100675.13
2023-03-29T13:20:32.088Z,100669.81
2023-03-29T13:23:21.913Z,100653.91
2023-03-29T13:26:32.509Z,100648.94
2023-03-29T13:29:20.778Z,100622.31
2023-03-29T13:31:57.500Z,100640.78
2023-03-29T13:34:37.626Z,100639.13
2023-03-29T13:37:34.657Z,100638.63
2023-03-29T13:40:01.687Z,100603.50
2023-03-29T13:42:34.138Z,100644.50
2023-03-29T13:45:25.167Z,100606.69
2023-03-29T13:48:20.511Z,100614.41
2023-03-29T13:50:58.511Z,100622.81
2023-03-29T13:53:51.778Z,100612.91
2023-03-29T13:56:49.191Z,100622.41
2023-03-29T13:59:19.877Z,100617.53
2023-03-29T14:01:57.788Z,100566.75
2023-03-29T14:04:28.358Z,100577.50
2023-03-29T14:06:56.643Z,100589.41
2023-03-29T14:09:30.771Z,100589.34
2023-03-29T14:11:59.848Z,100564.81
2023-03-29T14:14:29.666Z,100564.00
2023-03-29T14:16:56.701Z,100572.59
2023-03-29T14:19:42.137Z,100600.16
2023-03-29T14:22:13.584Z,100579.91
2023-03-29T14:24:47.974Z,100585.03
2023-03-29T14:27:14.218Z,100576.31
2023-03-29T14:29:40.615Z,100575.69
2023-03-29T14:32:11.349Z,100535.38
2023-03-29T14:34:38.881Z,100581.47
2023-03-29T14:37:08.883Z,100584.09
2023-03-29T14:39:35.937Z,100485.56
2023-03-29T14:42:02.566Z,100570.66
2023-03-29T14:44:32.998Z,100567.06
2023-03-29T14:47:01.493Z,100552.50
2023-03-29T14:49:28.733Z,100562.63
2023-03-29T14:51:55.723Z,100532.66
2023-03-29T14:54:26.203Z,100518.59
2023-03-29T14:56:53.743Z,100539.19
2023-03-29T14:59:35.170Z,100535.72
2023-03-29T15:02:01.555Z,100535.38
2023-03-29T15:04:35.538Z,100550.31
2023-03-29T15:07:04.213Z,100516.47
2023-03-29T15:09:34.598Z,100514.50
2023-03-29T15:12:03.083Z,100463.94
2023-03-29T15:14:36.772Z,100501.22
2023-03-29T15:17:06.929Z,100518.56
2023-03-29T15:19:34.257Z,100502.06
2023-03-29T15:22:10.936Z,100511.09
2023-03-29T15:24:44.481Z,100466.47
2023-03-29T15:27:15.715Z,100507.19
2023-03-29T15:29:43.491Z,100451.25
2023-03-29T15:32:19.910Z,100498.47
2023-03-29T15:34:47.287Z,100450.47
2023-03-29T15:37:13.788Z,100450.34
2023-03-29T15:39:44.034Z,100439.25
2023-03-29T15:42:10.961Z,100451.19
2023-03-29T15:44:38.571Z,100457.88
2023-03-29T15:47:10.708Z,100429.69
2023-03-29T15:49:37.086Z,100449.75
2023-03-29T15:52:04.136Z,100438.94
2023-03-29T15:54:31.592Z,100382.63
2023-03-29T15:57:05.385Z,100400.88
2023-03-29T15:59:32.137Z,100418.44
2023-03-29T16:01:59.426Z,100430.41
2023-03-29T16:04:26.192Z,100392.78
2023-03-29T16:06:54.568Z,100419.09
2023-03-29T16:09:22.353Z,100429.78
2023-03-29T16:11:49.687Z,100415.34
2023-03-29T16:14:24.157Z,100424.31
2023-03-29T16:16:52.264Z,100401.50
2023-03-29T16:19:19.443Z,100421.66
2023-03-29T16:21:45.884Z,100423.88
2023-03-29T16:24:15.193Z,100383.06
2023-03-29T16:26:42.526Z,100387.06
2023-03-29T16:29:09.283Z,100389.56
2023-03-29T16:31:36.400Z,100406.94
2023-03-29T16:34:04.133Z,100397.50
2023-03-29T16:36:31.860Z,100369.88
2023-03-29T16:38:58.869Z,100400.22
2023-03-29T16:41:25.716Z,100363.75
2023-03-29T16:43:52.043Z,100384.44
2023-03-29T16:46:18.486Z,100359.66
2023-03-29T16:48:44.832Z,100353.06
2023-03-29T16:51:11.211Z,100365.63
2023-03-29T16:53:38.024Z,100369.53
2023-03-29T16:56:05.155Z,100360.50
2023-03-29T16:58:31.911Z,100341.78
2023-03-29T17:00:58.366Z,100331.66
2023-03-29T17:03:24.821Z,100350.06
2023-03-29T17:05:53.217Z,100370.41
2023-03-29T17:08:21.051Z,100362.19
2023-03-29T17:10:53.234Z,100376.03
2023-03-29T17:13:21.122Z,100357.75
2023-03-29T17:15:48.759Z,100308.88
2023-03-29T17:18:15.200Z,100328.88
2023-03-29T17:20:41.510Z,100312.97
2023-03-29T17:23:08.745Z,100354.34
2023-03-29T17:25:36.406Z,100368.84
2023-03-29T17:28:03.542Z,100344.66
2023-03-29T17:30:29.990Z,100330.22
2023-03-29T17:32:56.652Z,100367.16
2023-03-29T17:35:23.079Z,100346.75
2023-03-29T17:37:49.454Z,100309.03
2023-03-29T17:40:17.135Z,100330.03
2023-03-29T17:42:46.327Z,100301.66
2023-03-29T17:45:12.716Z,100324.75
2023-03-29T17:47:39.106Z,100358.91
2023-03-29T17:50:07.003Z,100357.50
2023-03-29T17:52:33.753Z,100331.94
2023-03-29T17:55:00.213Z,100327.88
2023-03-29T17:57:26.657Z,100319.91
2023-03-29T17:59:53.363Z,100318.88
2023-03-29T18:02:22.473Z,100342.47
2023-03-29T18:04:48.940Z,100323.16
2023-03-29T18:07:15.800Z,100298.34
2023-03-29T18:09:42.525Z,100301.63
2023-03-29T18:12:08.947Z,100290.19
2023-03-29T18:14:35.545Z,100290.63
2023-03-29T18:17:02.447Z,100298.53
2023-03-29T18:19:28.955Z,100299.03
2023-03-29T18:21:56.127Z,100283.31
2023-03-29T18:24:22.471Z,100340.78
2023-03-29T18:26:48.809Z,100299.69
2023-03-29T18:29:15.430Z,100333.75
2023-03-29T18:31:42.673Z,100329.13
2023-03-29T18:34:09.233Z,100313.16
2023-03-29T18:36:35.696Z,100261.88
2023-03-29T18:39:05.693Z,100290.63
2023-03-29T18:41:33.638Z,100279.19
2023-03-29T18:44:00.763Z,100332.91
2023-03-29T18:46:31.683Z,100329.53
2023-03-29T18:48:59.417Z,100310.69
2023-03-29T18:51:28.000Z,100293.91
2023-03-29T18:53:55.932Z,100308.03
2023-03-29T18:56:22.453Z,100300.81
2023-03-29T18:58:48.968Z,100271.41
2023-03-29T19:01:15.579Z,100304.16
2023-03-29T19:03:41.981Z,100303.31
2023-03-29T19:06:08.505Z,100283.00
2023-03-29T19:08:37.233Z,100285.56
2023-03-29T19:11:06.404Z,100294.66
2023-03-29T19:13:33.127Z,100274.31
2023-03-29T19:15:59.705Z,100236.56
2023-03-29T19:18:35.351Z,100289.38
2023-03-29T19:21:02.328Z,100293.13
2023-03-29T19:23:28.753Z,100174.78
2023-03-29T19:26:00.026Z,100282.84
2023-03-29T19:28:27.296Z,100276.03
2023-03-29T19:30:54.443Z,100279.75
2023-03-29T19:33:20.881Z,100280.75
2023-03-29T19:35:50.488Z,100278.34
2023-03-29T19:38:17.212Z,100251.47
2023-03-29T19:40:48.602Z,100244.56
2023-03-29T19:43:16.676Z,100243.47
2023-03-29T19:45:44.076Z,100253.03
2023-03-29T19:50:42.693Z,100261.91
2023-03-29T19:53:10.304Z,100227.47
2023-03-29T19:55:40.015Z,100217.44
2023-03-29T19:58:07.028Z,100217.44
2023-03-29T20:00:33.454Z,100208.75
2023-03-29T20:02:59.815Z,100229.56
2023-03-29T20:05:26.699Z,100248.50
2023-03-29T20:07:54.160Z,100114.31
2023-03-29T20:10:20.897Z,100189.41
2023-03-29T20:12:47.744Z,100236.56
2023-03-29T20:15:14.321Z,100219.47
2023-03-29T20:17:41.280Z,100188.63
2023-03-29T20:20:10.024Z,100211.25
2023-03-29T20:22:38.031Z,100213.41
2023-03-29T20:25:05.393Z,100196.56
2023-03-29T20:27:31.956Z,100211.09
2023-03-29T20:29:58.308Z,100205.84
2023-03-29T20:32:24.738Z,100169.06
2023-03-29T20:34:51.233Z,100105.31
2023-03-29T20:37:17.586Z,100182.59
2023-03-29T20:39:43.907Z,100201.13
2023-03-29T20:42:11.103Z,100158.09
2023-03-29T20:44:39.032Z,100166.34
2023-03-29T20:47:07.946Z,100178.72
2023-03-29T20:49:39.184Z,100139.31
2023-03-29T20:52:10.539Z,100194.13
2023-03-29T20:54:37.295Z,100164.38
2023-03-29T20:57:04.860Z,100184.66
2023-03-29T20:59:31.232Z,100151.09
2023-03-29T21:01:58.341Z,100177.03
2023-03-29T21:04:24.841Z,100134.06
2023-03-29T21:06:51.293Z,100096.47
2023-03-29T21:09:20.855Z,100152.50
2023-03-29T21:11:48.536Z,100156.06
2023-03-29T21:14:19.339Z,100148.31
2023-03-29T21:16:47.240Z,100130.34
2023-03-29T21:19:15.367Z,100136.16
2023-03-29T21:21:42.667Z,100131.13
2023-03-29T21:24:10.538Z,100116.66
2023-03-29T21:26:37.237Z,100124.50
2023-03-29T21:29:03.787Z,100122.78
2023-03-29T21:31:30.373Z,100103.72
2023-03-29T21:33:56.736Z,100092.44
2023-03-29T21:36:23.742Z,100118.97
2023-03-29T21:38:51.413Z,100110.56
2023-03-29T21:41:18.640Z,100122.38
2023-03-29T21:43:45.355Z,100081.41
2023-03-29T21:46:12.400Z,100120.34
2023-03-29T21:48:38.847Z,100053.00
2023-03-29T21:51:05.758Z,100089.13
2023-03-29T21:53:32.337Z,100070.78
2023-03-29T21:55:58.677Z,100114.75
2023-03-29T21:58:25.023Z,100068.91
2023-03-29T22:00:51.737Z,100102.34
2023-03-29T22:03:18.148Z,100108.53
2023-03-29T22:05:56.005Z,100090.78
2023-03-29T22:08:26.125Z,100091.81
2023-03-29T22:10:57.685Z,100088.53
2023-03-29T22:13:26.004Z,100110.13
2023-03-29T22:15:58.582Z,100098.91
2023-03-29T22:18:30.033Z,100099.28
2023-03-29T22:20:57.456Z,100079.97
2023-03-29T22:23:24.781Z,100080.66
2023-03-29T22:25:51.256Z,100062.97
2023-03-29T22:28:17.656Z,100084.38
2023-03-29T22:30:44.136Z,100070.75
2023-03-29T22:33:11.130Z,100089.97
2023-03-29T22:35:37.549Z,100086.41
2023-03-29T22:38:04.037Z,100068.41
2023-03-29T22:40:33.101Z,100049.81
2023-03-29T22:42:59.780Z,100018.94
2023-03-29T22:45:26.150Z,100052.94
2023-03-29T22:47:52.595Z,99989.47
2023-03-29T22:50:18.944Z,100043.91
2023-03-29T22:52:45.540Z,99974.00
2023-03-29T22:55:11.860Z,100039.66
2023-03-29T22:57:38.186Z,99986.84
2023-03-29T23:00:08.660Z,100047.03
2023-03-29T23:02:35.287Z,100055.72
2023-03-29T23:05:01.855Z,100023.31
2023-03-29T23:07:28.263Z,100065.25
2023-03-29T23:09:54.674Z,100022.06
2023-03-29T23:12:21.113Z,100058.75
2023-03-29T23:14:47.456Z,100033.09
2023-03-29T23:17:13.787Z,100020.06
2023-03-29T23:19:40.105Z,100013.41
2023-03-29T23:22:06.519Z,100037.28
2023-03-29T23:24:33.286Z,100025.97
2023-03-29T23:27:01.002Z,100013.94
2023-03-29T23:29:27.575Z,100032.16
2023-03-29T23:31:56.621Z,100015.88
2023-03-29T23:34:23.057Z,99966.88
2023-03-29T23:36:49.374Z,100026.75
2023-03-29T23:39:16.115Z,100028.16
2023-03-29T23:41:42.428Z,99994.78
2023-03-29T23:44:08.815Z,100014.34
2023-03-29T23:46:35.470Z,99993.56
2023-03-29T23:49:01.851Z,99977.28
2023-03-29T23:51:28.348Z,99971.06
2023-03-29T23:53:55.699Z,100011.22
2023-03-29T23:56:22.893Z,99984.88
2023-03-29T23:58:49.488Z,99986.72
